Terminal Aerodrome Forecast
Issued by NWS

Home | Current Version | Previous Version | Graphics & Text | Print | Product List | Glossary On
Versions: 1 2 3 4 5 6 7 8 9 10 11 12 13 14 15 16 17 18
107
FTUS43 KICT 172320
TAFRSL
TAF
KRSL 172320Z 1800/1824 VRB03KT P6SM SKC
     FM180300 14008KT P6SM SKC
     FM180900 17017G24KT P6SM SCT250 WS020/20050KT
     FM181600 20026G36KT P6SM SCT250=

USA.gov is the U.S. government's official web portal to all federal, state and local government web resources and services.